sensor_id;sensor_type;location;lat;lon;timestamp;P1;durP1;ratioP1;P2;durP2;ratioP2
53714;SDS011;39608;55.630;37.864;2024-03-23T00:56:01;40.95;;;20.85;;
53714;SDS011;39608;55.630;37.864;2024-03-23T01:01:05;38.72;;;18.67;;
53714;SDS011;39608;55.630;37.864;2024-03-23T01:06:07;36.50;;;17.17;;
53714;SDS011;39608;55.630;37.864;2024-03-23T01:11:10;37.97;;;19.08;;
53714;SDS011;39608;55.630;37.864;2024-03-23T01:16:12;35.35;;;19.15;;
53714;SDS011;39608;55.630;37.864;2024-03-23T01:21:14;43.95;;;20.80;;
53714;SDS011;39608;55.630;37.864;2024-03-23T01:26:18;41.00;;;19.05;;
53714;SDS011;39608;55.630;37.864;2024-03-23T01:31:20;34.00;;;17.85;;
53714;SDS011;39608;55.630;37.864;2024-03-23T01:36:22;42.58;;;20.17;;
53714;SDS011;39608;55.630;37.864;2024-03-23T01:41:26;34.22;;;16.90;;
53714;SDS011;39608;55.630;37.864;2024-03-23T01:46:28;25.05;;;12.38;;
53714;SDS011;39608;55.630;37.864;2024-03-23T01:51:30;29.95;;;15.23;;
53714;SDS011;39608;55.630;37.864;2024-03-23T01:56:35;36.58;;;19.20;;
53714;SDS011;39608;55.630;37.864;2024-03-23T02:01:37;28.25;;;15.45;;
53714;SDS011;39608;55.630;37.864;2024-03-23T02:06:39;26.17;;;13.45;;
53714;SDS011;39608;55.630;37.864;2024-03-23T02:11:42;35.95;;;17.38;;
53714;SDS011;39608;55.630;37.864;2024-03-23T02:16:45;36.85;;;17.98;;
53714;SDS011;39608;55.630;37.864;2024-03-23T02:21:47;39.22;;;16.85;;
53714;SDS011;39608;55.630;37.864;2024-03-23T02:26:50;45.13;;;18.85;;
53714;SDS011;39608;55.630;37.864;2024-03-23T02:31:53;23.88;;;11.65;;
53714;SDS011;39608;55.630;37.864;2024-03-23T02:36:55;35.65;;;18.60;;
53714;SDS011;39608;55.630;37.864;2024-03-23T02:41:58;40.28;;;18.23;;
53714;SDS011;39608;55.630;37.864;2024-03-23T02:47:00;30.75;;;17.38;;
53714;SDS011;39608;55.630;37.864;2024-03-23T02:52:03;24.98;;;11.57;;
53714;SDS011;39608;55.630;37.864;2024-03-23T02:57:06;27.17;;;14.18;;
53714;SDS011;39608;55.630;37.864;2024-03-23T03:02:09;33.85;;;16.35;;
53714;SDS011;39608;55.630;37.864;2024-03-23T03:07:12;24.35;;;12.02;;
53714;SDS011;39608;55.630;37.864;2024-03-23T03:12:16;19.60;;;11.07;;
53714;SDS011;39608;55.630;37.864;2024-03-23T03:17:18;21.75;;;12.07;;
53714;SDS011;39608;55.630;37.864;2024-03-23T03:22:20;35.72;;;15.93;;
53714;SDS011;39608;55.630;37.864;2024-03-23T03:27:24;28.15;;;15.40;;
53714;SDS011;39608;55.630;37.864;2024-03-23T03:32:26;29.42;;;14.65;;
53714;SDS011;39608;55.630;37.864;2024-03-23T03:37:28;37.55;;;15.70;;
53714;SDS011;39608;55.630;37.864;2024-03-23T03:42:31;21.77;;;11.35;;
53714;SDS011;39608;55.630;37.864;2024-03-23T03:47:33;19.83;;;10.70;;
53714;SDS011;39608;55.630;37.864;2024-03-23T03:52:35;35.42;;;14.23;;
53714;SDS011;39608;55.630;37.864;2024-03-23T03:57:39;31.38;;;15.63;;
53714;SDS011;39608;55.630;37.864;2024-03-23T04:02:41;19.63;;;11.18;;
53714;SDS011;39608;55.630;37.864;2024-03-23T04:07:43;31.65;;;16.30;;
53714;SDS011;39608;55.630;37.864;2024-03-23T04:12:47;25.95;;;12.82;;
53714;SDS011;39608;55.630;37.864;2024-03-23T04:17:49;21.33;;;12.20;;
53714;SDS011;39608;55.630;37.864;2024-03-23T04:22:51;24.73;;;11.57;;
53714;SDS011;39608;55.630;37.864;2024-03-23T04:27:55;24.08;;;13.18;;
53714;SDS011;39608;55.630;37.864;2024-03-23T04:32:57;24.15;;;10.57;;
53714;SDS011;39608;55.630;37.864;2024-03-23T04:37:59;27.10;;;13.63;;
53714;SDS011;39608;55.630;37.864;2024-03-23T04:43:03;17.90;;;10.30;;
53714;SDS011;39608;55.630;37.864;2024-03-23T04:48:06;29.50;;;13.93;;
53714;SDS011;39608;55.630;37.864;2024-03-23T04:53:08;29.50;;;13.80;;
53714;SDS011;39608;55.630;37.864;2024-03-23T04:58:11;31.40;;;13.70;;
53714;SDS011;39608;55.630;37.864;2024-03-23T05:03:14;18.95;;;10.93;;
53714;SDS011;39608;55.630;37.864;2024-03-23T05:08:16;23.75;;;12.88;;
53714;SDS011;39608;55.630;37.864;2024-03-23T05:13:19;15.50;;;8.90;;
53714;SDS011;39608;55.630;37.864;2024-03-23T05:18:21;17.92;;;9.10;;
53714;SDS011;39608;55.630;37.864;2024-03-23T05:23:27;20.08;;;9.95;;
53714;SDS011;39608;55.630;37.864;2024-03-23T05:28:31;19.35;;;9.30;;
53714;SDS011;39608;55.630;37.864;2024-03-23T05:33:33;19.17;;;11.80;;
53714;SDS011;39608;55.630;37.864;2024-03-23T05:38:35;26.60;;;13.90;;
53714;SDS011;39608;55.630;37.864;2024-03-23T05:43:39;25.02;;;11.43;;
53714;SDS011;39608;55.630;37.864;2024-03-23T05:48:41;21.58;;;11.63;;
53714;SDS011;39608;55.630;37.864;2024-03-23T05:53:44;26.85;;;10.43;;
53714;SDS011;39608;55.630;37.864;2024-03-23T05:58:47;16.48;;;9.57;;
53714;SDS011;39608;55.630;37.864;2024-03-23T06:03:50;26.02;;;14.10;;
53714;SDS011;39608;55.630;37.864;2024-03-23T06:08:52;29.20;;;12.20;;
53714;SDS011;39608;55.630;37.864;2024-03-23T06:13:55;24.65;;;11.52;;
53714;SDS011;39608;55.630;37.864;2024-03-23T06:18:57;22.95;;;11.50;;
53714;SDS011;39608;55.630;37.864;2024-03-23T06:24:00;20.60;;;12.13;;
53714;SDS011;39608;55.630;37.864;2024-03-23T06:29:03;22.92;;;12.63;;
53714;SDS011;39608;55.630;37.864;2024-03-23T06:34:06;29.92;;;16.23;;
53714;SDS011;39608;55.630;37.864;2024-03-23T06:39:08;23.00;;;12.20;;
53714;SDS011;39608;55.630;37.864;2024-03-23T06:44:14;16.40;;;10.40;;
53714;SDS011;39608;55.630;37.864;2024-03-23T06:49:16;20.15;;;12.27;;
53714;SDS011;39608;55.630;37.864;2024-03-23T06:54:18;16.63;;;10.25;;
53714;SDS011;39608;55.630;37.864;2024-03-23T06:59:22;26.38;;;14.15;;
53714;SDS011;39608;55.630;37.864;2024-03-23T07:04:24;23.83;;;12.68;;
53714;SDS011;39608;55.630;37.864;2024-03-23T07:09:26;16.02;;;8.73;;
53714;SDS011;39608;55.630;37.864;2024-03-23T07:14:30;20.67;;;11.00;;
53714;SDS011;39608;55.630;37.864;2024-03-23T07:19:32;24.10;;;13.63;;
53714;SDS011;39608;55.630;37.864;2024-03-23T07:24:35;15.95;;;10.85;;
53714;SDS011;39608;55.630;37.864;2024-03-23T07:29:38;17.70;;;10.98;;
53714;SDS011;39608;55.630;37.864;2024-03-23T07:34:40;28.30;;;15.27;;
53714;SDS011;39608;55.630;37.864;2024-03-23T07:39:43;23.08;;;14.32;;
53714;SDS011;39608;55.630;37.864;2024-03-23T07:44:47;19.33;;;11.35;;
53714;SDS011;39608;55.630;37.864;2024-03-23T07:49:49;23.58;;;13.05;;
53714;SDS011;39608;55.630;37.864;2024-03-23T07:54:51;28.77;;;18.05;;
53714;SDS011;39608;55.630;37.864;2024-03-23T07:59:55;23.23;;;12.40;;
53714;SDS011;39608;55.630;37.864;2024-03-23T08:04:57;26.40;;;16.77;;
53714;SDS011;39608;55.630;37.864;2024-03-23T08:09:59;27.58;;;16.98;;
53714;SDS011;39608;55.630;37.864;2024-03-23T08:15:06;29.15;;;16.80;;
53714;SDS011;39608;55.630;37.864;2024-03-23T08:20:08;29.40;;;16.05;;
53714;SDS011;39608;55.630;37.864;2024-03-23T08:25:11;36.88;;;20.42;;
53714;SDS011;39608;55.630;37.864;2024-03-23T08:30:15;32.33;;;18.63;;
53714;SDS011;39608;55.630;37.864;2024-03-23T08:35:17;30.75;;;15.50;;
53714;SDS011;39608;55.630;37.864;2024-03-23T08:40:19;37.60;;;17.38;;
53714;SDS011;39608;55.630;37.864;2024-03-23T08:45:23;29.98;;;18.10;;
53714;SDS011;39608;55.630;37.864;2024-03-23T08:50:25;31.17;;;15.23;;
53714;SDS011;39608;55.630;37.864;2024-03-23T08:55:28;26.73;;;16.58;;
53714;SDS011;39608;55.630;37.864;2024-03-23T09:00:31;30.05;;;18.08;;
53714;SDS011;39608;55.630;37.864;2024-03-23T09:05:33;26.08;;;15.88;;
53714;SDS011;39608;55.630;37.864;2024-03-23T09:10:41;33.50;;;18.75;;
53714;SDS011;39608;55.630;37.864;2024-03-23T09:15:47;30.40;;;16.50;;
53714;SDS011;39608;55.630;37.864;2024-03-23T09:20:50;27.92;;;17.60;;
53714;SDS011;39608;55.630;37.864;2024-03-23T09:25:53;25.33;;;13.60;;
53714;SDS011;39608;55.630;37.864;2024-03-23T09:31:03;22.60;;;13.73;;
53714;SDS011;39608;55.630;37.864;2024-03-23T09:36:06;34.28;;;13.57;;
53714;SDS011;39608;55.630;37.864;2024-03-23T09:41:09;15.07;;;9.43;;
53714;SDS011;39608;55.630;37.864;2024-03-23T09:46:13;16.40;;;10.52;;
53714;SDS011;39608;55.630;37.864;2024-03-23T09:51:16;15.70;;;9.32;;
53714;SDS011;39608;55.630;37.864;2024-03-23T09:56:18;19.23;;;11.93;;
53714;SDS011;39608;55.630;37.864;2024-03-23T10:01:21;12.77;;;8.65;;
53714;SDS011;39608;55.630;37.864;2024-03-23T10:06:23;14.50;;;9.65;;
53714;SDS011;39608;55.630;37.864;2024-03-23T10:11:26;11.85;;;8.20;;
53714;SDS011;39608;55.630;37.864;2024-03-23T10:16:31;19.30;;;11.77;;
53714;SDS011;39608;55.630;37.864;2024-03-23T10:21:33;20.77;;;12.10;;
53714;SDS011;39608;55.630;37.864;2024-03-23T10:26:35;17.55;;;11.45;;
53714;SDS011;39608;55.630;37.864;2024-03-23T10:31:38;19.33;;;12.13;;
53714;SDS011;39608;55.630;37.864;2024-03-23T10:36:41;19.58;;;11.38;;
53714;SDS011;39608;55.630;37.864;2024-03-23T10:41:45;21.30;;;12.68;;
53714;SDS011;39608;55.630;37.864;2024-03-23T10:46:50;11.23;;;8.90;;
53714;SDS011;39608;55.630;37.864;2024-03-23T10:51:59;20.52;;;12.48;;
53714;SDS011;39608;55.630;37.864;2024-03-23T10:57:03;20.02;;;10.98;;
53714;SDS011;39608;55.630;37.864;2024-03-23T11:02:18;19.75;;;12.00;;
53714;SDS011;39608;55.630;37.864;2024-03-23T11:07:30;10.63;;;7.60;;
53714;SDS011;39608;55.630;37.864;2024-03-23T11:12:33;18.20;;;9.98;;
53714;SDS011;39608;55.630;37.864;2024-03-23T11:17:36;18.77;;;10.52;;
53714;SDS011;39608;55.630;37.864;2024-03-23T11:22:39;19.00;;;11.57;;
53714;SDS011;39608;55.630;37.864;2024-03-23T11:27:45;16.42;;;11.85;;
53714;SDS011;39608;55.630;37.864;2024-03-23T11:32:49;10.93;;;8.10;;
53714;SDS011;39608;55.630;37.864;2024-03-23T11:43:10;18.40;;;11.15;;
53714;SDS011;39608;55.630;37.864;2024-03-23T11:48:16;16.40;;;11.13;;
53714;SDS011;39608;55.630;37.864;2024-03-23T11:53:21;15.83;;;9.70;;
53714;SDS011;39608;55.630;37.864;2024-03-23T11:58:25;15.70;;;10.50;;
53714;SDS011;39608;55.630;37.864;2024-03-23T12:03:29;18.27;;;11.43;;
53714;SDS011;39608;55.630;37.864;2024-03-23T12:08:33;19.63;;;13.15;;
53714;SDS011;39608;55.630;37.864;2024-03-23T12:13:36;20.67;;;14.50;;
53714;SDS011;39608;55.630;37.864;2024-03-23T12:18:40;25.95;;;15.00;;
53714;SDS011;39608;55.630;37.864;2024-03-23T12:23:43;20.75;;;13.48;;
53714;SDS011;39608;55.630;37.864;2024-03-23T12:28:47;20.25;;;13.52;;
53714;SDS011;39608;55.630;37.864;2024-03-23T12:33:51;22.67;;;15.20;;
53714;SDS011;39608;55.630;37.864;2024-03-23T12:38:53;19.52;;;12.85;;
53714;SDS011;39608;55.630;37.864;2024-03-23T12:43:55;21.63;;;14.48;;
53714;SDS011;39608;55.630;37.864;2024-03-23T12:48:58;28.20;;;17.13;;
53714;SDS011;39608;55.630;37.864;2024-03-23T12:54:00;25.08;;;14.05;;
53714;SDS011;39608;55.630;37.864;2024-03-23T12:59:02;27.52;;;14.65;;
53714;SDS011;39608;55.630;37.864;2024-03-23T13:04:06;20.45;;;11.70;;
53714;SDS011;39608;55.630;37.864;2024-03-23T13:09:08;27.42;;;14.57;;
53714;SDS011;39608;55.630;37.864;2024-03-23T13:14:11;25.55;;;14.98;;
53714;SDS011;39608;55.630;37.864;2024-03-23T13:19:16;18.98;;;11.95;;
53714;SDS011;39608;55.630;37.864;2024-03-23T13:24:21;22.35;;;14.27;;
53714;SDS011;39608;55.630;37.864;2024-03-23T13:29:23;29.15;;;15.10;;
53714;SDS011;39608;55.630;37.864;2024-03-23T13:34:27;23.85;;;14.30;;
53714;SDS011;39608;55.630;37.864;2024-03-23T13:39:30;21.80;;;10.52;;
53714;SDS011;39608;55.630;37.864;2024-03-23T13:44:32;28.15;;;16.73;;
53714;SDS011;39608;55.630;37.864;2024-03-23T13:49:35;22.98;;;13.50;;
53714;SDS011;39608;55.630;37.864;2024-03-23T13:54:37;30.90;;;15.88;;
53714;SDS011;39608;55.630;37.864;2024-03-23T13:59:45;31.08;;;17.20;;
53714;SDS011;39608;55.630;37.864;2024-03-23T14:04:50;26.23;;;16.15;;
53714;SDS011;39608;55.630;37.864;2024-03-23T14:09:53;23.23;;;13.68;;
53714;SDS011;39608;55.630;37.864;2024-03-23T14:14:55;24.60;;;14.68;;
53714;SDS011;39608;55.630;37.864;2024-03-23T14:19:59;26.98;;;12.80;;
53714;SDS011;39608;55.630;37.864;2024-03-23T14:25:04;23.55;;;10.95;;
53714;SDS011;39608;55.630;37.864;2024-03-23T14:30:07;16.75;;;9.60;;
53714;SDS011;39608;55.630;37.864;2024-03-23T14:35:11;25.20;;;13.30;;
53714;SDS011;39608;55.630;37.864;2024-03-23T14:40:13;23.98;;;12.50;;
53714;SDS011;39608;55.630;37.864;2024-03-23T14:45:15;18.80;;;11.02;;
53714;SDS011;39608;55.630;37.864;2024-03-23T14:50:19;21.42;;;13.90;;
53714;SDS011;39608;55.630;37.864;2024-03-23T14:55:21;27.23;;;14.90;;
53714;SDS011;39608;55.630;37.864;2024-03-23T15:00:23;22.23;;;13.40;;
53714;SDS011;39608;55.630;37.864;2024-03-23T15:05:27;20.30;;;12.32;;
53714;SDS011;39608;55.630;37.864;2024-03-23T15:10:29;19.70;;;11.02;;
53714;SDS011;39608;55.630;37.864;2024-03-23T15:15:31;19.55;;;12.98;;
53714;SDS011;39608;55.630;37.864;2024-03-23T15:20:34;23.15;;;14.00;;
53714;SDS011;39608;55.630;37.864;2024-03-23T15:25:36;18.30;;;12.70;;
53714;SDS011;39608;55.630;37.864;2024-03-23T15:30:38;23.40;;;14.57;;
53714;SDS011;39608;55.630;37.864;2024-03-23T15:35:42;21.88;;;12.15;;
53714;SDS011;39608;55.630;37.864;2024-03-23T15:40:50;23.48;;;13.85;;
53714;SDS011;39608;55.630;37.864;2024-03-23T15:45:55;21.10;;;13.35;;
53714;SDS011;39608;55.630;37.864;2024-03-23T15:51:00;25.83;;;12.60;;
53714;SDS011;39608;55.630;37.864;2024-03-23T15:56:03;24.23;;;13.18;;
53714;SDS011;39608;55.630;37.864;2024-03-23T16:01:07;23.13;;;11.65;;
53714;SDS011;39608;55.630;37.864;2024-03-23T16:06:12;26.25;;;15.13;;
53714;SDS011;39608;55.630;37.864;2024-03-23T16:11:14;21.92;;;13.23;;
53714;SDS011;39608;55.630;37.864;2024-03-23T16:16:16;21.30;;;13.55;;
53714;SDS011;39608;55.630;37.864;2024-03-23T16:21:22;21.27;;;13.20;;
53714;SDS011;39608;55.630;37.864;2024-03-23T16:26:24;21.55;;;14.48;;
53714;SDS011;39608;55.630;37.864;2024-03-23T16:31:26;21.40;;;13.80;;
53714;SDS011;39608;55.630;37.864;2024-03-23T16:36:30;23.15;;;14.25;;
53714;SDS011;39608;55.630;37.864;2024-03-23T16:41:32;23.48;;;15.23;;
53714;SDS011;39608;55.630;37.864;2024-03-23T16:46:34;23.60;;;14.90;;
53714;SDS011;39608;55.630;37.864;2024-03-23T16:51:38;19.92;;;11.52;;
53714;SDS011;39608;55.630;37.864;2024-03-23T16:56:40;21.95;;;14.02;;
53714;SDS011;39608;55.630;37.864;2024-03-23T17:01:42;21.20;;;13.95;;
53714;SDS011;39608;55.630;37.864;2024-03-23T17:06:45;20.48;;;14.48;;
53714;SDS011;39608;55.630;37.864;2024-03-23T17:11:48;19.33;;;14.95;;
53714;SDS011;39608;55.630;37.864;2024-03-23T17:16:51;19.35;;;12.82;;
53714;SDS011;39608;55.630;37.864;2024-03-23T17:21:54;21.48;;;13.43;;
53714;SDS011;39608;55.630;37.864;2024-03-23T17:26:56;18.73;;;11.98;;
53714;SDS011;39608;55.630;37.864;2024-03-23T17:31:58;20.38;;;12.05;;
53714;SDS011;39608;55.630;37.864;2024-03-23T17:37:02;15.82;;;11.25;;
53714;SDS011;39608;55.630;37.864;2024-03-23T17:42:04;14.90;;;10.52;;
53714;SDS011;39608;55.630;37.864;2024-03-23T17:47:06;16.38;;;9.68;;
53714;SDS011;39608;55.630;37.864;2024-03-23T17:52:10;12.80;;;9.88;;
53714;SDS011;39608;55.630;37.864;2024-03-23T17:57:12;15.57;;;9.75;;
53714;SDS011;39608;55.630;37.864;2024-03-23T18:02:14;13.20;;;8.60;;
53714;SDS011;39608;55.630;37.864;2024-03-23T18:07:18;16.95;;;10.13;;
53714;SDS011;39608;55.630;37.864;2024-03-23T18:12:20;17.15;;;11.02;;
53714;SDS011;39608;55.630;37.864;2024-03-23T18:17:26;16.58;;;11.40;;
53714;SDS011;39608;55.630;37.864;2024-03-23T18:22:29;21.85;;;13.32;;
53714;SDS011;39608;55.630;37.864;2024-03-23T18:27:32;19.63;;;13.07;;
53714;SDS011;39608;55.630;37.864;2024-03-23T18:32:34;18.50;;;13.65;;
53714;SDS011;39608;55.630;37.864;2024-03-23T18:37:37;19.55;;;11.00;;
53714;SDS011;39608;55.630;37.864;2024-03-23T18:42:39;15.75;;;10.35;;
53714;SDS011;39608;55.630;37.864;2024-03-23T18:47:41;15.57;;;10.65;;
53714;SDS011;39608;55.630;37.864;2024-03-23T18:52:44;14.10;;;10.13;;
53714;SDS011;39608;55.630;37.864;2024-03-23T18:57:47;16.50;;;10.38;;
53714;SDS011;39608;55.630;37.864;2024-03-23T19:02:49;17.27;;;10.10;;
53714;SDS011;39608;55.630;37.864;2024-03-23T19:07:52;14.27;;;10.50;;
53714;SDS011;39608;55.630;37.864;2024-03-23T19:12:54;16.70;;;10.07;;
53714;SDS011;39608;55.630;37.864;2024-03-23T19:17:56;15.80;;;10.38;;
53714;SDS011;39608;55.630;37.864;2024-03-23T19:23:00;15.65;;;9.82;;
53714;SDS011;39608;55.630;37.864;2024-03-23T19:28:02;15.27;;;9.90;;
53714;SDS011;39608;55.630;37.864;2024-03-23T19:33:04;17.30;;;9.63;;
53714;SDS011;39608;55.630;37.864;2024-03-23T19:38:09;14.45;;;10.15;;
53714;SDS011;39608;55.630;37.864;2024-03-23T19:43:11;14.23;;;10.95;;
53714;SDS011;39608;55.630;37.864;2024-03-23T19:48:13;14.02;;;9.73;;
53714;SDS011;39608;55.630;37.864;2024-03-23T19:53:17;19.35;;;9.85;;
53714;SDS011;39608;55.630;37.864;2024-03-23T19:58:19;15.45;;;9.95;;
53714;SDS011;39608;55.630;37.864;2024-03-23T20:03:21;16.85;;;11.27;;
53714;SDS011;39608;55.630;37.864;2024-03-23T20:08:24;15.02;;;10.88;;
53714;SDS011;39608;55.630;37.864;2024-03-23T20:13:26;15.48;;;9.95;;
53714;SDS011;39608;55.630;37.864;2024-03-23T20:18:29;16.15;;;10.75;;
53714;SDS011;39608;55.630;37.864;2024-03-23T20:23:34;19.63;;;11.88;;
53714;SDS011;39608;55.630;37.864;2024-03-23T20:28:36;14.80;;;9.35;;
53714;SDS011;39608;55.630;37.864;2024-03-23T20:33:38;14.20;;;9.75;;
53714;SDS011;39608;55.630;37.864;2024-03-23T20:38:42;15.73;;;10.13;;
53714;SDS011;39608;55.630;37.864;2024-03-23T20:43:44;17.83;;;11.05;;
53714;SDS011;39608;55.630;37.864;2024-03-23T20:48:46;18.83;;;10.18;;
53714;SDS011;39608;55.630;37.864;2024-03-23T20:53:51;14.45;;;9.95;;
53714;SDS011;39608;55.630;37.864;2024-03-23T20:58:53;16.40;;;10.93;;
53714;SDS011;39608;55.630;37.864;2024-03-23T21:03:55;15.07;;;10.25;;
53714;SDS011;39608;55.630;37.864;2024-03-23T21:08:59;18.92;;;11.57;;
53714;SDS011;39608;55.630;37.864;2024-03-23T21:14:01;18.23;;;11.18;;
53714;SDS011;39608;55.630;37.864;2024-03-23T21:19:03;18.40;;;10.20;;
53714;SDS011;39608;55.630;37.864;2024-03-23T21:24:06;18.77;;;10.40;;
53714;SDS011;39608;55.630;37.864;2024-03-23T21:29:09;18.17;;;11.35;;
53714;SDS011;39608;55.630;37.864;2024-03-23T21:34:11;17.17;;;10.27;;
53714;SDS011;39608;55.630;37.864;2024-03-23T21:39:14;17.08;;;11.35;;
53714;SDS011;39608;55.630;37.864;2024-03-23T21:44:16;15.65;;;10.95;;
53714;SDS011;39608;55.630;37.864;2024-03-23T21:49:18;17.10;;;11.40;;
53714;SDS011;39608;55.630;37.864;2024-03-23T21:54:22;17.23;;;11.48;;
53714;SDS011;39608;55.630;37.864;2024-03-23T21:59:24;14.57;;;11.15;;
53714;SDS011;39608;55.630;37.864;2024-03-23T22:04:26;14.43;;;10.85;;
53714;SDS011;39608;55.630;37.864;2024-03-23T22:09:30;24.23;;;12.10;;
53714;SDS011;39608;55.630;37.864;2024-03-23T22:14:32;14.15;;;9.77;;
53714;SDS011;39608;55.630;37.864;2024-03-23T22:19:34;16.88;;;11.52;;
53714;SDS011;39608;55.630;37.864;2024-03-23T22:24:38;15.18;;;9.98;;
53714;SDS011;39608;55.630;37.864;2024-03-23T22:29:40;19.02;;;11.35;;
53714;SDS011;39608;55.630;37.864;2024-03-23T22:34:42;16.23;;;9.90;;
53714;SDS011;39608;55.630;37.864;2024-03-23T22:39:46;13.75;;;9.98;;
53714;SDS011;39608;55.630;37.864;2024-03-23T22:44:49;12.77;;;9.85;;
53714;SDS011;39608;55.630;37.864;2024-03-23T22:49:51;14.88;;;9.25;;
53714;SDS011;39608;55.630;37.864;2024-03-23T22:54:54;14.25;;;9.02;;
53714;SDS011;39608;55.630;37.864;2024-03-23T22:59:57;12.70;;;8.88;;
53714;SDS011;39608;55.630;37.864;2024-03-23T23:04:59;12.45;;;9.30;;
53714;SDS011;39608;55.630;37.864;2024-03-23T23:10:02;13.02;;;8.65;;
53714;SDS011;39608;55.630;37.864;2024-03-23T23:15:05;14.13;;;8.70;;
53714;SDS011;39608;55.630;37.864;2024-03-23T23:20:08;15.25;;;10.85;;
53714;SDS011;39608;55.630;37.864;2024-03-23T23:25:12;15.05;;;9.75;;
53714;SDS011;39608;55.630;37.864;2024-03-23T23:30:14;12.85;;;8.95;;
53714;SDS011;39608;55.630;37.864;2024-03-23T23:35:16;14.02;;;9.15;;
53714;SDS011;39608;55.630;37.864;2024-03-23T23:40:19;14.00;;;9.63;;
53714;SDS011;39608;55.630;37.864;2024-03-23T23:45:21;15.85;;;9.40;;
53714;SDS011;39608;55.630;37.864;2024-03-23T23:50:23;14.27;;;8.75;;
53714;SDS011;39608;55.630;37.864;2024-03-23T23:55:27;13.27;;;7.68;;
